Time;durP1;ratioP1;P1;durP2;ratioP2;P2;SDS_P1;SDS_P2;PMS_P1;PMS_P2;Temp;Humidity;BMP_temperature;BMP_pressure;BME280_temperature;BME280_humidity;BME280_pressure;Samples;Min_cycle;Max_cycle;Signal;HPM_P1;HPM_P2
2024/02/23 00:02:07;;;;;;;4.47;1.60;;;;;;;7.37;100.00;96864.66;6203150;22;20015;-64
2024/02/23 00:04:34;;;;;;;3.80;1.50;;;;;;;7.29;100.00;96855.16;6230703;22;20065;-60
2024/02/23 00:07:02;;;;;;;4.13;1.40;;;;;;;7.25;100.00;96861.66;6201911;22;20019;-63
2024/02/23 00:09:28;;;;;;;4.10;1.00;;;;;;;7.25;100.00;96851.31;6205069;22;20416;-61
2024/02/23 00:11:55;;;;;;;4.05;1.25;;;;;;;7.20;100.00;96846.63;6228159;22;20023;-63
2024/02/23 00:14:21;;;;;;;3.15;1.00;;;;;;;7.19;100.00;96846.78;6230353;22;20053;-64
2024/02/23 00:16:46;;;;;;;3.53;1.00;;;;;;;7.20;100.00;96851.00;6204251;22;20015;-61
2024/02/23 00:19:12;;;;;;;2.30;0.82;;;;;;;7.20;100.00;96853.59;6227948;22;20066;-62
2024/02/23 00:21:40;;;;;;;2.88;0.90;;;;;;;7.10;100.00;96838.25;6203456;22;20679;-62
2024/02/23 00:24:09;;;;;;;2.92;1.10;;;;;;;7.12;100.00;96841.50;6228680;22;20602;-61
2024/02/23 00:26:34;;;;;;;3.10;1.10;;;;;;;7.18;100.00;96847.78;6229142;22;20018;-62
2024/02/23 00:28:59;;;;;;;2.50;0.88;;;;;;;7.10;100.00;96859.75;6203949;22;20011;-61
2024/02/23 00:31:25;;;;;;;2.88;0.85;;;;;;;7.01;100.00;96842.66;6228612;22;20011;-62
2024/02/23 00:33:50;;;;;;;2.45;0.50;;;;;;;7.08;100.00;96851.34;6202354;22;20153;-61
2024/02/23 00:36:16;;;;;;;2.20;0.77;;;;;;;7.02;100.00;96835.69;6229163;22;20004;-62
2024/02/23 00:38:42;;;;;;;2.05;0.60;;;;;;;7.04;100.00;96849.25;6202391;22;20659;-60
2024/02/23 00:41:07;;;;;;;1.88;0.52;;;;;;;6.80;100.00;96824.28;6204190;22;20019;-62
2024/02/23 00:43:40;;;;;;;2.50;0.80;;;;;;;6.62;100.00;96791.69;6204409;22;20804;-62
2024/02/23 00:46:08;;;;;;;2.35;0.73;;;;;;;7.00;100.00;96848.78;6202425;22;20071;-60
2024/02/23 00:48:36;;;;;;;1.52;0.55;;;;;;;6.94;100.00;96833.94;6204604;22;20008;-62
2024/02/23 00:51:02;;;;;;;1.83;0.40;;;;;;;6.99;100.00;96831.69;6227258;22;20008;-60
2024/02/23 00:53:29;;;;;;;2.00;0.70;;;;;;;7.02;100.00;96839.09;6204795;22;20018;-62
2024/02/23 00:55:54;;;;;;;1.95;0.70;;;;;;;6.98;100.00;96830.06;6200121;22;20011;-61
2024/02/23 00:58:19;;;;;;;2.40;0.70;;;;;;;7.01;100.00;96829.72;6203415;22;20511;-60
2024/02/23 01:00:47;;;;;;;1.73;0.57;;;;;;;6.97;100.00;96819.88;6228061;22;20108;-62
2024/02/23 01:03:13;;;;;;;2.42;0.80;;;;;;;7.02;100.00;96828.75;6230908;22;20044;-62
2024/02/23 01:05:39;;;;;;;3.30;0.90;;;;;;;6.95;100.00;96814.88;6200871;22;20015;-62
2024/02/23 01:08:05;;;;;;;2.80;0.85;;;;;;;6.95;100.00;96820.03;6204637;22;20011;-62
2024/02/23 01:10:30;;;;;;;2.50;0.60;;;;;;;6.89;100.00;96815.53;6197769;22;20019;-61
2024/02/23 01:12:57;;;;;;;2.78;0.88;;;;;;;6.87;100.00;96814.91;6220069;22;20012;-60
2024/02/23 01:15:22;;;;;;;3.40;1.00;;;;;;;6.79;100.00;96802.00;6199619;22;20085;-60
2024/02/23 01:17:50;;;;;;;4.10;1.40;;;;;;;6.81;100.00;96793.13;6200114;22;20011;-61
2024/02/23 01:20:15;;;;;;;3.67;1.10;;;;;;;6.83;100.00;96791.19;6227757;22;20033;-60
2024/02/23 01:22:41;;;;;;;2.80;0.93;;;;;;;6.46;100.00;96746.06;6200921;22;20015;-60
2024/02/23 01:25:06;;;;;;;2.45;0.73;;;;;;;6.66;100.00;96777.50;6227300;22;20061;-60
2024/02/23 01:27:34;;;;;;;3.50;0.80;;;;;;;6.64;100.00;96787.16;6199618;22;20485;-60
2024/02/23 01:30:00;;;;;;;3.20;1.00;;;;;;;6.35;100.00;96723.16;6204326;22;20011;-59
2024/02/23 01:32:25;;;;;;;4.15;0.95;;;;;;;6.32;100.00;96726.09;6202553;22;20069;-60
2024/02/23 01:34:52;;;;;;;4.20;1.00;;;;;;;6.33;100.00;96723.34;6229524;22;20774;-61
2024/02/23 01:37:20;;;;;;;3.55;1.23;;;;;;;6.60;100.00;96760.06;6201385;22;20515;-62
2024/02/23 01:39:46;;;;;;;3.20;1.00;;;;;;;6.59;100.00;96775.72;6255219;22;20239;-62
2024/02/23 01:42:17;;;;;;;3.13;0.90;;;;;;;6.28;100.00;96723.03;6224692;22;20114;-62
2024/02/23 01:44:42;;;;;;;2.67;0.80;;;;;;;6.67;100.00;96773.94;6229889;22;20003;-61
2024/02/23 01:47:08;;;;;;;2.63;0.80;;;;;;;6.75;100.00;96783.44;6201428;22;20012;-61
2024/02/23 01:49:36;;;;;;;2.60;0.70;;;;;;;6.59;100.00;96773.97;6201169;22;20057;-63
2024/02/23 01:52:03;;;;;;;2.22;0.70;;;;;;;6.53;100.00;96770.25;6203943;22;20029;-63
2024/02/23 01:54:29;;;;;;;2.80;0.75;;;;;;;6.63;100.00;96784.78;6203081;22;20796;-62
2024/02/23 01:56:58;;;;;;;1.50;0.60;;;;;;;6.58;100.00;96767.16;6201123;22;20023;-60
2024/02/23 01:59:25;;;;;;;4.05;0.70;;;;;;;6.54;100.00;96763.31;6199333;23;20012;-60
2024/02/23 02:01:50;;;;;;;1.73;0.60;;;;;;;6.43;100.00;96756.72;6214026;23;20123;-61
2024/02/23 02:04:16;;;;;;;1.50;0.50;;;;;;;6.56;100.00;96770.91;6203058;22;20059;-63
2024/02/23 02:06:45;;;;;;;2.67;0.80;;;;;;;6.47;100.00;96772.69;6226206;22;20450;-62
2024/02/23 02:09:10;;;;;;;2.08;0.63;;;;;;;6.46;100.00;96758.16;6205007;22;20065;-62
2024/02/23 02:11:45;;;;;;;3.15;0.80;;;;;;;6.49;100.00;96745.72;6226763;22;20004;-63
2024/02/23 02:14:10;;;;;;;2.70;0.70;;;;;;;6.16;100.00;96694.16;6201649;22;20019;-62
2024/02/23 02:16:36;;;;;;;2.92;0.80;;;;;;;6.46;100.00;96740.91;6203681;22;20034;-61
2024/02/23 02:19:04;;;;;;;2.40;0.77;;;;;;;6.39;100.00;96739.13;6202406;22;20786;-61
2024/02/23 02:21:29;;;;;;;2.05;0.60;;;;;;;6.05;100.00;96684.16;6254670;22;20012;-61
2024/02/23 02:24:02;;;;;;;2.72;0.93;;;;;;;6.14;100.00;96696.09;6201416;22;20016;-60
2024/02/23 02:26:31;;;;;;;1.08;0.50;;;;;;;6.32;100.00;96733.81;6204892;22;20013;-60
2024/02/23 02:28:56;;;;;;;0.63;0.30;;;;;;;5.88;100.00;96678.19;6227833;22;20042;-59
2024/02/23 02:31:24;;;;;;;0.52;0.35;;;;;;;6.15;100.00;96718.38;6202031;22;20834;-59
2024/02/23 02:33:49;;;;;;;0.70;0.30;;;;;;;6.00;100.00;96691.59;6204117;22;20050;-61
2024/02/23 02:36:15;;;;;;;1.05;0.45;;;;;;;6.16;100.00;96719.94;6200071;22;20090;-62
2024/02/23 02:38:40;;;;;;;1.67;0.50;;;;;;;6.18;100.00;96717.22;6228493;22;20708;-60
2024/02/23 02:41:06;;;;;;;2.35;0.63;;;;;;;6.24;100.00;96721.75;6226802;22;20532;-60
2024/02/23 02:43:31;;;;;;;1.65;0.50;;;;;;;6.06;100.00;96677.22;6229339;22;20034;-61
2024/02/23 02:45:57;;;;;;;1.65;0.52;;;;;;;5.92;100.00;96658.03;6202552;22;20020;-61
2024/02/23 02:48:23;;;;;;;1.88;0.60;;;;;;;6.20;100.00;96696.41;6201753;22;20235;-61
2024/02/23 02:50:49;;;;;;;2.35;0.60;;;;;;;6.19;100.00;96692.22;6229006;22;20106;-61
2024/02/23 02:53:15;;;;;;;1.52;0.57;;;;;;;6.25;100.00;96704.47;6229693;22;20015;-59
2024/02/23 02:55:42;;;;;;;1.38;0.40;;;;;;;5.83;100.00;96654.66;6227440;22;20296;-60
2024/02/23 02:58:11;;;;;;;1.50;0.35;;;;;;;6.08;100.00;96689.00;6227041;22;20008;-60
2024/02/23 03:00:36;;;;;;;0.95;0.40;;;;;;;6.05;100.00;96701.44;6202332;22;20012;-63
2024/02/23 03:03:01;;;;;;;0.93;0.30;;;;;;;6.06;100.00;96692.72;6202460;22;20023;-62
2024/02/23 03:05:27;;;;;;;0.50;0.20;;;;;;;6.02;100.00;96686.28;6200743;22;20042;-61
2024/02/23 03:07:52;;;;;;;1.45;0.40;;;;;;;5.96;100.00;96685.16;6203792;22;20057;-61
2024/02/23 03:10:20;;;;;;;0.55;0.30;;;;;;;5.95;100.00;96692.09;6202829;22;20012;-62
2024/02/23 03:12:45;;;;;;;0.10;0.10;;;;;;;5.94;100.00;96695.59;6201830;22;20011;-61
2024/02/23 03:15:11;;;;;;;0.82;0.30;;;;;;;5.86;100.00;96676.72;6200765;22;20078;-61
2024/02/23 03:17:36;;;;;;;0.95;0.30;;;;;;;5.91;100.00;96682.22;6203471;22;20022;-62
2024/02/23 03:20:05;;;;;;;1.50;0.30;;;;;;;5.88;100.00;96685.13;6201822;22;20012;-61
2024/02/23 03:22:33;;;;;;;0.40;0.20;;;;;;;5.87;100.00;96681.72;6203101;22;20069;-61
2024/02/23 03:24:58;;;;;;;2.00;0.45;;;;;;;5.80;100.00;96679.97;6227698;22;20230;-61
2024/02/23 03:27:28;;;;;;;1.42;0.30;;;;;;;5.77;100.00;96670.78;6200632;22;20647;-61
2024/02/23 03:29:55;;;;;;;0.88;0.30;;;;;;;5.84;100.00;96674.34;6228032;22;20335;-59
2024/02/23 03:32:23;;;;;;;1.25;0.40;;;;;;;5.89;100.00;96674.63;6201132;22;20019;-62
2024/02/23 03:34:48;;;;;;;2.90;0.40;;;;;;;5.84;100.00;96673.50;6202130;22;20086;-63
2024/02/23 03:37:16;;;;;;;1.83;0.52;;;;;;;5.64;100.00;96629.19;6202831;22;20466;-62
2024/02/23 03:39:41;;;;;;;0.82;0.30;;;;;;;5.42;100.00;96628.06;6198302;22;20015;-60
2024/02/23 03:42:07;;;;;;;1.67;0.30;;;;;;;5.73;100.00;96684.94;6204615;22;20090;-60
2024/02/23 03:44:32;;;;;;;1.65;0.30;;;;;;;5.81;100.00;96690.13;6202752;22;20107;-61
2024/02/23 03:47:00;;;;;;;0.63;0.20;;;;;;;5.83;100.00;96695.94;6203610;22;20661;-60
2024/02/23 03:49:28;;;;;;;0.40;0.20;;;;;;;5.71;100.00;96692.06;6227830;22;20029;-61
2024/02/23 03:51:55;;;;;;;0.10;0.10;;;;;;;5.68;100.00;96688.03;6203103;22;20008;-62
2024/02/23 03:54:26;;;;;;;1.33;0.30;;;;;;;5.69;100.00;96699.16;6228594;22;20019;-62
2024/02/23 03:56:51;;;;;;;0.75;0.30;;;;;;;5.65;100.00;96679.81;6226130;22;20262;-60
2024/02/23 03:59:16;;;;;;;0.73;0.30;;;;;;;5.66;100.00;96678.81;6203059;22;20476;-61
2024/02/23 04:01:44;;;;;;;1.52;0.38;;;;;;;5.68;100.00;96692.41;6199255;22;20073;-61
2024/02/23 04:04:10;;;;;;;2.13;0.30;;;;;;;5.68;100.00;96682.88;6202375;22;20039;-61
2024/02/23 04:06:36;;;;;;;2.60;0.45;;;;;;;5.56;100.00;96682.38;6201623;22;20094;-60
2024/02/23 04:09:01;;;;;;;0.75;0.30;;;;;;;5.51;100.00;96681.25;6203160;22;20680;-61
2024/02/23 04:11:27;;;;;;;1.15;0.50;;;;;;;5.56;100.00;96677.22;6201658;22;20014;-61
2024/02/23 04:13:54;;;;;;;0.63;0.20;;;;;;;5.30;100.00;96619.88;6202486;22;20069;-62
2024/02/23 04:16:23;;;;;;;1.55;0.40;;;;;;;5.71;100.00;96668.84;6201278;22;20092;-61
2024/02/23 04:18:49;;;;;;;1.75;0.40;;;;;;;5.64;100.00;96670.44;6200770;22;20022;-61
2024/02/23 04:21:15;;;;;;;1.77;0.38;;;;;;;5.62;100.00;96662.88;6202499;22;20016;-62
2024/02/23 04:23:40;;;;;;;1.80;0.43;;;;;;;5.54;100.00;96655.16;6227078;22;20530;-62
2024/02/23 04:26:06;;;;;;;1.33;0.30;;;;;;;5.51;100.00;96650.31;6203157;22;20059;-63
2024/02/23 04:28:34;;;;;;;2.45;0.50;;;;;;;5.48;100.00;96635.97;6227595;22;20081;-61
2024/02/23 04:31:00;;;;;;;1.45;0.40;;;;;;;5.46;100.00;96629.34;6204131;22;20003;-61
2024/02/23 04:33:26;;;;;;;1.08;0.30;;;;;;;5.47;100.00;96621.47;6229822;22;20019;-64
2024/02/23 04:35:51;;;;;;;1.65;0.30;;;;;;;5.41;100.00;96622.13;6228896;22;20012;-62
2024/02/23 04:38:19;;;;;;;0.60;0.20;;;;;;;5.43;100.00;96617.59;6257086;22;20115;-63
2024/02/23 04:40:44;;;;;;;0.57;0.20;;;;;;;5.45;100.00;96625.19;6227168;22;20071;-61
2024/02/23 04:43:10;;;;;;;1.63;0.38;;;;;;;5.43;100.00;96621.97;6205444;22;20392;-62
2024/02/23 04:45:38;;;;;;;1.58;0.30;;;;;;;5.43;100.00;96617.59;6227201;22;20007;-61
2024/02/23 04:48:08;;;;;;;0.73;0.30;;;;;;;5.15;100.00;96560.44;6230002;22;20008;-63
2024/02/23 04:50:34;;;;;;;1.10;0.32;;;;;;;5.32;100.00;96605.84;6202554;22;20114;-63
2024/02/23 04:52:59;;;;;;;2.50;0.45;;;;;;;5.42;100.00;96597.13;6204121;22;20107;-62
2024/02/23 04:55:24;;;;;;;1.55;0.47;;;;;;;5.39;100.00;96590.56;6227687;22;20590;-63
2024/02/23 04:57:52;;;;;;;1.52;0.50;;;;;;;5.44;100.00;96595.22;6227866;22;20014;-64
2024/02/23 05:00:20;;;;;;;0.80;0.30;;;;;;;5.43;100.00;96602.13;6205747;22;20008;-63
2024/02/23 05:02:46;;;;;;;1.05;0.30;;;;;;;5.14;100.00;96541.56;6226478;22;20329;-64
2024/02/23 05:05:12;;;;;;;3.33;0.50;;;;;;;5.43;100.00;96591.84;6202937;22;20111;-64
2024/02/23 05:07:37;;;;;;;1.95;0.50;;;;;;;5.50;100.00;96604.88;6254852;22;20004;-62
2024/02/23 05:10:03;;;;;;;1.27;0.40;;;;;;;5.45;100.00;96607.13;6205097;22;20116;-65
2024/02/23 05:12:29;;;;;;;2.13;0.40;;;;;;;5.51;100.00;96602.16;6227164;22;20011;-64
2024/02/23 05:14:54;;;;;;;2.00;0.50;;;;;;;5.47;100.00;96607.78;6204160;22;20090;-64
2024/02/23 05:17:23;;;;;;;1.92;0.50;;;;;;;5.35;100.00;96602.94;6228777;22;20035;-62
2024/02/23 05:19:48;;;;;;;1.65;0.50;;;;;;;5.37;100.00;96602.78;6229351;22;20077;-62
2024/02/23 05:22:13;;;;;;;1.08;0.43;;;;;;;5.43;100.00;96619.38;6228522;22;20725;-62
2024/02/23 05:24:39;;;;;;;2.85;0.40;;;;;;;5.52;100.00;96621.00;6227658;22;20016;-65
2024/02/23 05:27:04;;;;;;;1.40;0.30;;;;;;;5.59;100.00;96622.75;6257683;22;20007;-63
2024/02/23 05:29:30;;;;;;;2.03;0.30;;;;;;;5.69;100.00;96635.47;6200579;22;20043;-63
2024/02/23 05:31:55;;;;;;;2.53;0.50;;;;;;;5.42;100.00;96597.97;6230336;22;20011;-60
2024/02/23 05:34:23;;;;;;;1.48;0.50;;;;;;;5.57;100.00;96640.16;6203169;22;20498;-61
2024/02/23 05:36:50;;;;;;;1.02;0.40;;;;;;;5.52;100.00;96639.84;6202287;22;20008;-63
2024/02/23 05:39:16;;;;;;;1.50;0.30;;;;;;;5.48;100.00;96630.81;6204619;22;20398;-62
2024/02/23 05:41:41;;;;;;;0.93;0.30;;;;;;;5.58;100.00;96635.81;6202291;22;20087;-61
2024/02/23 05:44:10;;;;;;;1.55;0.30;;;;;;;5.56;100.00;96635.97;6204931;22;20012;-59
2024/02/23 05:46:36;;;;;;;0.88;0.30;;;;;;;5.66;100.00;96622.09;6202113;22;20725;-62
2024/02/23 05:49:03;;;;;;;0.77;0.30;;;;;;;5.50;100.00;96612.63;6230340;22;20090;-63
2024/02/23 05:51:31;;;;;;;0.95;0.30;;;;;;;5.48;100.00;96614.56;6229721;22;20008;-62
2024/02/23 05:54:02;;;;;;;1.38;0.22;;;;;;;5.44;100.00;96590.88;6229524;22;20008;-62
2024/02/23 05:56:27;;;;;;;1.13;0.28;;;;;;;5.37;100.00;96580.41;6229494;22;20065;-63
2024/02/23 05:58:52;;;;;;;0.40;0.20;;;;;;;5.43;100.00;96588.47;6227493;22;20015;-62
2024/02/23 06:01:23;;;;;;;1.58;0.30;;;;;;;5.34;100.00;96562.66;6216655;22;20004;-61
2024/02/23 06:03:50;;;;;;;0.90;0.30;;;;;;;5.42;100.00;96561.06;6198922;22;20012;-63
2024/02/23 06:06:16;;;;;;;1.17;0.30;;;;;;;5.38;100.00;96568.31;6227645;22;20011;-65
2024/02/23 06:08:43;;;;;;;0.30;0.20;;;;;;;5.36;100.00;96553.00;6224046;22;20103;-64
2024/02/23 06:11:09;;;;;;;0.73;0.30;;;;;;;5.38;100.00;96561.41;6201448;22;20019;-64
2024/02/23 06:13:40;;;;;;;1.17;0.40;;;;;;;5.39;100.00;96551.88;6200976;22;20332;-62
2024/02/23 06:16:10;;;;;;;0.68;0.25;;;;;;;5.34;100.00;96546.41;6227111;22;20315;-63
2024/02/23 06:18:35;;;;;;;;;;;;;;;5.35;100.00;96530.78;6202156;22;20085;-61
2024/02/23 06:21:02;;;;;;;0.68;0.30;;;;;;;5.46;100.00;96513.34;6255034;22;19907;-64
2024/02/23 06:23:27;;;;;;;0.63;0.28;;;;;;;5.38;100.00;96486.66;6206515;22;20716;-63
2024/02/23 06:25:52;;;;;;;0.98;0.30;;;;;;;5.38;100.00;96494.41;6225547;22;20089;-64
2024/02/23 06:28:20;;;;;;;1.17;0.50;;;;;;;5.35;100.00;96484.41;6203825;22;20018;-62
2024/02/23 06:30:46;;;;;;;0.98;0.40;;;;;;;5.36;100.00;96501.47;6189497;22;20417;-65
2024/02/23 06:33:11;;;;;;;1.63;0.38;;;;;;;5.04;100.00;96476.56;6254981;22;20022;-67
2024/02/23 06:35:36;;;;;;;0.95;0.30;;;;;;;5.32;100.00;96540.63;6199131;22;20020;-65
2024/02/23 06:38:02;;;;;;;2.10;0.47;;;;;;;5.06;100.00;96502.16;6225753;22;20131;-66
2024/02/23 06:40:30;;;;;;;1.25;0.40;;;;;;;5.08;100.00;96510.53;6223879;22;20550;-64
2024/02/23 06:42:55;;;;;;;1.40;0.60;;;;;;;5.29;100.00;96558.97;6226561;22;20007;-63
2024/02/23 06:45:25;;;;;;;1.67;0.60;;;;;;;5.26;100.00;96564.47;6228864;22;20018;-68
2024/02/23 06:47:55;;;;;;;1.33;0.50;;;;;;;5.21;100.00;96559.78;6222091;22;20749;-64
2024/02/23 06:50:24;;;;;;;0.47;0.20;;;;;;;5.07;100.00;96520.00;6204657;22;20024;-65
2024/02/23 06:52:50;;;;;;;2.05;0.68;;;;;;;5.43;100.00;96555.75;6202339;22;20020;-63
2024/02/23 06:55:17;;;;;;;1.25;0.40;;;;;;;5.52;100.00;96579.75;6204915;22;20555;-64
2024/02/23 06:57:47;;;;;;;0.47;0.20;;;;;;;5.51;100.00;96581.53;6206535;22;20059;-64
2024/02/23 07:00:13;;;;;;;1.58;0.30;;;;;;;5.42;100.00;96584.25;6204593;22;20921;-65
2024/02/23 07:02:38;;;;;;;0.82;0.40;;;;;;;5.32;100.00;96564.59;6197350;22;20007;-64
2024/02/23 07:05:05;;;;;;;1.50;0.68;;;;;;;5.40;100.00;96584.41;6215699;22;20026;-64
2024/02/23 07:07:32;;;;;;;1.55;0.47;;;;;;;5.43;100.00;96578.94;6196946;22;20019;-69
2024/02/23 07:10:00;;;;;;;1.10;0.40;;;;;;;5.45;100.00;96582.16;6199631;22;20014;-65
2024/02/23 07:12:28;;;;;;;1.00;0.40;;;;;;;5.24;100.00;96545.75;6198997;22;20417;-66
2024/02/23 07:14:57;;;;;;;1.10;0.55;;;;;;;5.20;100.00;96538.38;6204089;22;20007;-65
2024/02/23 07:17:23;;;;;;;0.52;0.32;;;;;;;5.51;100.00;96591.00;6208555;23;20022;-65
2024/02/23 07:19:50;;;;;;;1.63;0.38;;;;;;;5.51;100.00;96588.44;6191247;23;20712;-66
2024/02/23 07:22:17;;;;;;;1.98;0.40;;;;;;;5.59;100.00;96591.03;6225998;22;20082;-66
2024/02/23 07:24:43;;;;;;;1.33;0.40;;;;;;;5.56;100.00;96586.97;6226446;22;20012;-66
2024/02/23 07:27:09;;;;;;;2.72;0.68;;;;;;;5.67;100.00;96592.78;6256457;22;20004;-64
2024/02/23 07:29:35;;;;;;;1.35;0.47;;;;;;;5.59;100.00;96585.88;6200673;22;20063;-66
2024/02/23 07:32:00;;;;;;;1.25;0.40;;;;;;;5.71;100.00;96597.47;6229264;22;20106;-61
2024/02/23 07:34:25;;;;;;;5.45;0.60;;;;;;;5.63;100.00;96596.66;6198833;22;20008;-62
2024/02/23 07:36:56;;;;;;;1.20;0.40;;;;;;;5.62;100.00;96605.34;6226726;22;20447;-62
2024/02/23 07:39:24;;;;;;;0.93;0.30;;;;;;;5.67;100.00;96616.78;6202140;22;20085;-61
2024/02/23 07:41:49;;;;;;;4.20;0.40;;;;;;;5.58;100.00;96617.75;6202671;22;20329;-59
2024/02/23 07:44:20;;;;;;;2.22;0.47;;;;;;;5.32;100.00;96568.97;6228227;22;20038;-63
2024/02/23 07:46:47;;;;;;;1.58;0.50;;;;;;;5.55;100.00;96612.94;6203925;22;20388;-64
2024/02/23 07:49:13;;;;;;;1.00;0.43;;;;;;;5.47;100.00;96608.56;6226643;22;20015;-62
2024/02/23 07:51:40;;;;;;;0.98;0.30;;;;;;;5.39;100.00;96604.22;6226408;22;20012;-61
2024/02/23 07:54:08;;;;;;;3.97;0.60;;;;;;;5.14;100.00;96562.19;6227124;22;20023;-60
2024/02/23 07:56:33;;;;;;;1.67;0.50;;;;;;;5.39;100.00;96593.94;6224684;22;20008;-62
2024/02/23 07:59:03;;;;;;;1.10;0.43;;;;;;;5.44;100.00;96596.03;6228772;22;20012;-61
2024/02/23 08:01:28;;;;;;;1.95;0.43;;;;;;;5.10;100.00;96534.34;6202268;22;20017;-62
2024/02/23 08:03:54;;;;;;;3.05;0.50;;;;;;;5.38;100.00;96581.19;6206611;22;20019;-62
2024/02/23 08:06:21;;;;;;;2.08;0.50;;;;;;;5.48;100.00;96581.03;6227882;22;20015;-59
2024/02/23 08:08:47;;;;;;;2.40;0.52;;;;;;;5.41;100.00;96577.50;6229502;22;20340;-62
2024/02/23 08:11:14;;;;;;;2.97;0.50;;;;;;;5.46;100.00;96583.78;6225521;22;20003;-63
2024/02/23 08:13:40;;;;;;;1.77;0.60;;;;;;;5.44;100.00;96572.00;6227024;22;20429;-63
2024/02/23 08:16:08;;;;;;;2.13;0.73;;;;;;;5.36;100.00;96583.94;6205802;22;20539;-63
2024/02/23 08:18:34;;;;;;;2.45;0.68;;;;;;;5.43;100.00;96594.41;6201944;22;20019;-61
2024/02/23 08:21:02;;;;;;;3.20;0.80;;;;;;;5.36;100.00;96588.28;6231667;22;20417;-63
2024/02/23 08:23:29;;;;;;;5.85;1.42;;;;;;;5.14;100.00;96545.94;6227476;22;20101;-61
2024/02/23 08:25:58;;;;;;;3.13;0.90;;;;;;;5.43;100.00;96598.75;6228899;22;20018;-61
2024/02/23 08:28:26;;;;;;;3.53;0.50;;;;;;;5.32;100.00;96600.69;6199530;22;20026;-62
2024/02/23 08:30:53;;;;;;;1.75;0.63;;;;;;;5.47;100.00;96608.56;6227018;22;20019;-64
2024/02/23 08:33:18;;;;;;;2.78;0.70;;;;;;;5.41;100.00;96609.22;6226307;22;20008;-62
2024/02/23 08:35:43;;;;;;;2.63;0.63;;;;;;;5.47;100.00;96594.88;6227219;22;20011;-61
2024/02/23 08:38:11;;;;;;;1.80;0.60;;;;;;;5.54;100.00;96583.75;6254873;22;20015;-61
2024/02/23 08:40:37;;;;;;;2.05;0.60;;;;;;;5.57;100.00;96574.91;6200673;22;20019;-63
2024/02/23 08:43:02;;;;;;;1.23;0.50;;;;;;;5.62;100.00;96569.25;6215132;22;20092;-62
2024/02/23 08:45:28;;;;;;;1.92;0.75;;;;;;;5.41;100.00;96544.00;6201708;22;20024;-62
2024/02/23 08:47:53;;;;;;;2.10;0.60;;;;;;;5.63;100.00;96574.25;6203559;22;20039;-64
2024/02/23 08:50:19;;;;;;;2.78;0.80;;;;;;;5.32;100.00;96543.19;6228436;22;19999;-61
2024/02/23 08:52:44;;;;;;;2.72;1.40;;;;;;;5.08;100.00;96516.47;6203926;22;20130;-60
2024/02/23 08:55:12;;;;;;;2.65;0.80;;;;;;;5.58;100.00;96621.16;6203816;22;20011;-62
2024/02/23 08:57:37;;;;;;;1.63;0.60;;;;;;;5.49;100.00;96619.53;6227926;22;20084;-65
2024/02/23 09:00:05;;;;;;;2.17;0.70;;;;;;;5.48;100.00;96630.03;6231867;22;20082;-65
2024/02/23 09:02:32;;;;;;;3.92;1.20;;;;;;;5.48;100.00;96635.19;6218995;22;20047;-61
2024/02/23 09:04:58;;;;;;;4.57;1.27;;;;;;;5.45;100.00;96620.81;6230676;22;20068;-64
2024/02/23 09:07:23;;;;;;;4.32;1.00;;;;;;;5.44;100.00;96624.38;6201065;22;20102;-64
2024/02/23 09:09:49;;;;;;;2.72;0.80;;;;;;;5.46;100.00;96625.03;6226769;22;20008;-63
2024/02/23 09:12:16;;;;;;;4.25;1.50;;;;;;;5.44;100.00;96618.41;6203600;22;20339;-64
2024/02/23 09:14:43;;;;;;;5.22;1.80;;;;;;;5.44;100.00;96613.25;6224115;22;20636;-64
2024/02/23 09:17:09;;;;;;;6.22;2.47;;;;;;;5.45;100.00;96622.59;6200683;22;20027;-63
2024/02/23 09:19:36;;;;;;;5.65;1.90;;;;;;;5.39;100.00;96617.13;6201827;22;20012;-63
2024/02/23 09:22:02;;;;;;;4.40;1.48;;;;;;;5.38;100.00;96612.94;6226417;22;20015;-63
2024/02/23 09:24:27;;;;;;;3.35;0.82;;;;;;;5.48;100.00;96612.78;6223453;22;20054;-64
2024/02/23 09:26:52;;;;;;;3.35;0.80;;;;;;;5.44;100.00;96618.41;6253617;22;20737;-63
2024/02/23 09:29:18;;;;;;;2.25;0.60;;;;;;;5.34;100.00;96598.75;6202683;22;20043;-62
2024/02/23 09:31:43;;;;;;;2.17;0.75;;;;;;;5.52;100.00;96626.16;6219231;22;20011;-65
2024/02/23 09:34:11;;;;;;;2.17;0.70;;;;;;;5.54;100.00;96621.63;6199722;23;20008;-65
2024/02/23 09:36:38;;;;;;;2.15;0.77;;;;;;;5.53;100.00;96615.69;6212245;23;20036;-62
2024/02/23 09:39:04;;;;;;;2.25;0.73;;;;;;;5.54;100.00;96611.31;6229072;22;20008;-65
2024/02/23 09:41:30;;;;;;;2.28;0.80;;;;;;;5.55;100.00;96624.06;6226262;22;20034;-62
2024/02/23 09:43:58;;;;;;;2.83;1.00;;;;;;;5.56;100.00;96612.75;6205183;22;20497;-61
2024/02/23 09:46:24;;;;;;;2.35;0.70;;;;;;;5.50;100.00;96587.63;6204324;22;20789;-65
2024/02/23 09:48:50;;;;;;;6.30;1.00;;;;;;;5.66;100.00;96616.94;6204801;22;20004;-65
2024/02/23 09:51:15;;;;;;;4.10;1.23;;;;;;;5.66;100.00;96624.69;6203499;22;20007;-66
2024/02/23 09:53:42;;;;;;;5.47;1.33;;;;;;;5.45;100.00;96571.06;6202262;22;20018;-63
2024/02/23 09:56:09;;;;;;;4.25;1.02;;;;;;;5.74;100.00;96615.16;6196089;22;20034;-63
2024/02/23 09:58:38;;;;;;;4.15;1.05;;;;;;;5.61;100.00;96596.03;6202042;22;20007;-63
2024/02/23 10:01:03;;;;;;;2.97;1.00;;;;;;;5.69;100.00;96603.72;6204356;22;20026;-64
2024/02/23 10:03:33;;;;;;;3.22;0.90;;;;;;;5.69;100.00;96588.25;6225742;22;20003;-63
2024/02/23 10:05:59;;;;;;;2.95;1.00;;;;;;;5.76;100.00;96596.97;6201924;22;20054;-63
2024/02/23 10:08:25;;;;;;;3.00;1.10;;;;;;;5.76;100.00;96581.50;6202410;22;20011;-65
2024/02/23 10:10:51;;;;;;;2.92;0.95;;;;;;;5.75;100.00;96569.56;6230068;22;20085;-66
2024/02/23 10:13:26;;;;;;;3.10;1.20;;;;;;;5.70;100.00;96571.84;6227143;22;20086;-65
2024/02/23 10:15:52;;;;;;;3.47;1.10;;;;;;;5.71;100.00;96582.00;6203876;22;20015;-63
2024/02/23 10:18:19;;;;;;;3.85;1.00;;;;;;;5.73;100.00;96569.75;6205733;22;20011;-64
2024/02/23 10:20:47;;;;;;;2.80;1.00;;;;;;;5.74;100.00;96560.22;6228839;22;20108;-65
2024/02/23 10:23:13;;;;;;;3.20;1.23;;;;;;;5.71;100.00;96576.00;6205112;22;20015;-65
2024/02/23 10:25:38;;;;;;;3.13;1.10;;;;;;;5.61;100.00;96565.88;6226902;22;20096;-64
2024/02/23 10:28:06;;;;;;;2.90;1.10;;;;;;;5.69;100.00;96568.44;6224108;22;20807;-62
2024/02/23 10:30:33;;;;;;;2.55;0.90;;;;;;;5.78;100.00;96587.28;6198701;22;20035;-64
2024/02/23 10:32:59;;;;;;;4.25;1.45;;;;;;;5.72;100.00;96580.22;6202148;22;20004;-66
2024/02/23 10:35:26;;;;;;;3.83;1.42;;;;;;;5.61;100.00;96585.72;6202202;22;20022;-67
2024/02/23 10:37:53;;;;;;;4.97;1.60;;;;;;;5.65;100.00;96590.38;6200929;22;20008;-70
2024/02/23 10:40:21;;;;;;;3.90;1.33;;;;;;;5.56;100.00;96593.91;6205669;22;20047;-65
2024/02/23 10:42:51;;;;;;;7.35;2.85;;;;;;;5.58;100.00;96597.13;6198786;22;19999;-69
2024/02/23 10:45:23;;;;;;;8.38;3.67;;;;;;;5.55;100.00;96584.59;6204026;22;20011;-65
2024/02/23 10:47:52;;;;;;;7.22;3.13;;;;;;;5.59;100.00;96584.09;6200030;22;20043;-64
2024/02/23 10:50:24;;;;;;;6.38;2.50;;;;;;;5.63;100.00;96591.50;6204444;22;20074;-66
2024/02/23 10:52:52;;;;;;;5.22;2.22;;;;;;;5.73;100.00;96586.97;6227615;22;20567;-62
2024/02/23 10:55:24;;;;;;;4.85;1.83;;;;;;;5.70;100.00;96590.69;6203620;22;20043;-66
2024/02/23 10:57:53;;;;;;;4.28;2.00;;;;;;;5.76;100.00;96589.22;6202038;22;20073;-66
2024/02/23 11:00:21;;;;;;;4.03;1.73;;;;;;;5.72;100.00;96586.16;6192324;22;20013;-63
2024/02/23 11:02:50;;;;;;;4.10;1.60;;;;;;;5.77;100.00;96596.81;6226959;22;20012;-66
2024/02/23 11:05:16;;;;;;;4.40;1.27;;;;;;;5.82;100.00;96604.03;6197761;22;20022;-62
2024/02/23 11:07:42;;;;;;;2.78;1.10;;;;;;;5.76;100.00;96594.38;6227352;22;20907;-64
2024/02/23 11:10:09;;;;;;;2.90;0.93;;;;;;;5.76;100.00;96594.38;6198919;22;20007;-65
2024/02/23 11:12:37;;;;;;;2.58;0.80;;;;;;;5.72;100.00;96596.47;6228694;22;20081;-66
2024/02/23 11:15:05;;;;;;;1.42;0.45;;;;;;;5.79;100.00;96591.47;6227811;22;20058;-67
2024/02/23 11:17:33;;;;;;;1.30;0.50;;;;;;;5.83;100.00;96591.97;6227040;22;20012;-63
2024/02/23 11:20:03;;;;;;;1.13;0.47;;;;;;;5.82;100.00;96591.13;6197047;22;20011;-66
2024/02/23 11:22:34;;;;;;;2.35;0.70;;;;;;;5.85;100.00;96595.19;6200242;22;20022;-68
2024/02/23 11:25:05;;;;;;;2.92;1.00;;;;;;;5.85;100.00;96595.97;6198342;22;20391;-67
2024/02/23 11:27:31;;;;;;;3.10;0.90;;;;;;;5.83;100.00;96600.50;6222044;22;20011;-65
2024/02/23 11:30:11;;;;;;;2.63;0.90;;;;;;;5.86;100.00;96602.75;6201274;22;20375;-64
2024/02/23 11:32:54;;;;;;;3.65;0.80;;;;;;;5.56;100.00;96540.56;6225665;22;20191;-66